Temp: 10.1°C   Baro: 1017.5mb
  Wind: 12.1mph   Dir: N (352°)
  Rain: 0.0mm (0.0mm/hr)
  Sun: 281W/m2  Humidity: 59%

Historic data

Bath Spa Weather Station Historical Data
Daily Summary for October 15, 2022 Units:  English    Metric   Both
Daily Weekly Monthly Yearly Custom
  High: Low: Average:
Temperature: 60.5 °F 48.6 °F 54.8 °F
Dew Point: 52.5 °F 46.6 °F 49.1 °F
Humidity: 94% 65% 82%
Wind Speed: 12.8mph 0mph 5.2mph
Wind Gust: 21mph - -
Wind- - SW
Pressure: 29.70 in 29.59 in -
Precipitation: 0.02 in    
Historical Graphs
 
 
Tabular Data for October 15, 2022
Time Temperature Dew Point Pressure Wind Wind Speed Wind Gust Humidity Rainfall Rate (Hourly) solar
00:09 48.7 °F 46.8 °F 29.70 in West 1.3 mph 3 mph 93% 0.00 in 0 W/m2
00:14 48.7 °F 46.8 °F 29.70 in West 1.2 mph 4 mph 93% 0.00 in 0 W/m2
00:19 48.6 °F 46.6 °F 29.70 in West 1.2 mph 3 mph 93% 0.00 in 0 W/m2
00:24 48.6 °F 46.6 °F 29.70 in West 0.6 mph 3 mph 93% 0.00 in 0 W/m2
00:29 48.8 °F 46.8 °F 29.70 in West 0.6 mph 2 mph 93% 0.00 in 0 W/m2
00:34 48.9 °F 46.9 °F 29.70 in Calm     93% 0.00 in 0 W/m2
00:39 48.9 °F 46.9 °F 29.70 in Calm     93% 0.00 in 0 W/m2
00:44 48.9 °F 46.9 °F 29.69 in West 0.2 mph 1 mph 93% 0.00 in 0 W/m2
00:49 48.9 °F 47 °F 29.69 in Calm   1 mph 93.2% 0.00 in 0 W/m2
00:54 49.1 °F 47.5 °F 29.69 in Calm     94% 0.00 in 0 W/m2
00:59 49.1 °F 47.5 °F 29.69 in Calm   1 mph 94% 0.00 in 0 W/m2
01:04 49.2 °F 47.6 °F 29.69 in West 0.6 mph 4 mph 94% 0.00 in 0 W/m2
01:09 49.4 °F 47.8 °F 29.69 in West 0.5 mph 4 mph 94% 0.00 in 0 W/m2
01:14 49.9 °F 48.3 °F 29.69 in WSW 0.9 mph 4 mph 94% 0.00 in 0 W/m2
01:19 50.7 °F 49.1 °F 29.68 in SW 0.9 mph 4 mph 94% 0.00 in 0 W/m2
01:24 51.3 °F 49.6 °F 29.68 in SW 0.7 mph 4 mph 94% 0.00 in 0 W/m2
01:29 51.3 °F 49.6 °F 29.68 in Calm   2 mph 94% 0.00 in 0 W/m2
01:34 51.3 °F 49.6 °F 29.68 in SW 1.2 mph 3 mph 94% 0.00 in 0 W/m2
01:39 51.3 °F 49.6 °F 29.68 in SW 0.9 mph 4 mph 94% 0.00 in 0 W/m2
01:44 51.3 °F 49.6 °F 29.67 in SW 1.6 mph 3 mph 94% 0.00 in 0 W/m2
01:49 51.3 °F 49.6 °F 29.67 in SW 0.2 mph 2 mph 94% 0.00 in 0 W/m2
01:54 51.3 °F 49.6 °F 29.67 in Calm     94% 0.00 in 0 W/m2
01:59 51.3 °F 49.6 °F 29.67 in Calm     94% 0.00 in 0 W/m2
02:04 51.2 °F 49.5 °F 29.67 in Calm     94% 0.00 in 0 W/m2
02:09 51.1 °F 49.5 °F 29.67 in SW 0.4 mph 2 mph 94% 0.00 in 0 W/m2
02:14 51.1 °F 49.5 °F 29.67 in SW 0.4 mph 2 mph 94% 0.00 in 0 W/m2
02:19 51.1 °F 49.5 °F 29.67 in SW 1.4 mph 2 mph 94% 0.00 in 0 W/m2
02:24 51.1 °F 49.5 °F 29.66 in SW 0.6 mph 3 mph 94% 0.00 in 0 W/m2
02:29 51.3 °F 49.6 °F 29.66 in SW 1 mph 3 mph 94% 0.00 in 0 W/m2
02:34 51.4 °F 49.8 °F 29.66 in SW 2.4 mph 4 mph 94% 0.00 in 0 W/m2
02:39 51.6 °F 50 °F 29.66 in SW 1.1 mph 4 mph 94% 0.00 in 0 W/m2
02:44 51.7 °F 50.1 °F 29.65 in SW 2 mph 3 mph 94% 0.00 in 0 W/m2
02:49 51.8 °F 50.2 °F 29.65 in SW 1.3 mph 3 mph 94% 0.00 in 0 W/m2
02:54 52 °F 50.4 °F 29.65 in SW 1.2 mph 3 mph 94% 0.00 in 0 W/m2
02:59 52.2 °F 50.5 °F 29.65 in SW 1.8 mph 4 mph 94% 0.00 in 0 W/m2
03:04 52.3 °F 50.7 °F 29.65 in Calm   4 mph 94% 0.00 in 0 W/m2
03:09 52.3 °F 50.7 °F 29.64 in SW 0.8 mph 4 mph 94% 0.00 in 0 W/m2
03:14 52.5 °F 50.9 °F 29.64 in SW 0.8 mph 3 mph 94% 0.00 in 0 W/m2
03:19 52.6 °F 51 °F 29.64 in SW 2.1 mph 3 mph 94% 0.00 in 0 W/m2
03:24 53 °F 51.3 °F 29.63 in SW 0.8 mph 3 mph 94% 0.00 in 0 W/m2
03:29 53.1 °F 51.4 °F 29.63 in SW 0.2 mph 3 mph 94% 0.00 in 0 W/m2
03:34 53.1 °F 51.4 °F 29.63 in SW 0.2 mph 1 mph 94% 0.00 in 0 W/m2
03:39 53.1 °F 51.4 °F 29.63 in SW 0.9 mph 3 mph 94% 0.00 in 0 W/m2
03:44 53.1 °F 51.5 °F 29.63 in SW 0.2 mph 2 mph 94% 0.00 in 0 W/m2
03:49 53.2 °F 51.6 °F 29.62 in SW 0.9 mph 3 mph 94% 0.00 in 0 W/m2
03:54 53.4 °F 51.8 °F 29.62 in Calm   3 mph 94% 0.00 in 0 W/m2
03:59 53.4 °F 51.8 °F 29.62 in South 0.6 mph 4 mph 94% 0.00 in 0 W/m2
04:04 53.4 °F 51.8 °F 29.62 in South 0.6 mph 4 mph 94% 0.00 in 0 W/m2
04:09 53.5 °F 51.9 °F 29.62 in South 1.4 mph 3 mph 94% 0.00 in 0 W/m2
04:14 53.8 °F 52.2 °F 29.62 in SSW 2.9 mph 6 mph 94% 0.00 in 0 W/m2
04:19 53.8 °F 52.2 °F 29.61 in Calm   1 mph 94% 0.00 in 0 W/m2
04:24 53.8 °F 52.2 °F 29.61 in SSW 0.5 mph 4 mph 94% 0.00 in 0 W/m2
04:29 53.8 °F 51.8 °F 29.61 in SSW 1.5 mph 4 mph 93% 0.00 in 0 W/m2
04:34 54 °F 52.2 °F 29.61 in SSW 2 mph 6 mph 93.8% 0.00 in 0 W/m2
04:39 54.1 °F 52.3 °F 29.61 in SSW 3.5 mph 8 mph 93.4% 0.00 in 0 W/m2
04:44 54.2 °F 52.3 °F 29.61 in SW 4.6 mph 8 mph 93% 0.00 in 0 W/m2
04:49 54.4 °F 52.4 °F 29.61 in SSW 4.9 mph 8 mph 93% 0.00 in 0 W/m2
04:54 54.5 °F 52.5 °F 29.61 in SW 4.9 mph 13 mph 93% 0.00 in 0 W/m2
04:59 54.4 °F 52.4 °F 29.61 in SSW 4.4 mph 13 mph 93% 0.00 in 0 W/m2
05:04 54.3 °F 52.3 °F 29.61 in SW 4.1 mph 8 mph 93% 0.01 in 0 W/m2
05:09 54.1 °F 52.2 °F 29.61 in WSW 3.3 mph 6 mph 93% 0.02 in 0 W/m2
05:14 54.1 °F 52.2 °F 29.60 in WSW 2.1 mph 7 mph 93% 0.02 in 0 W/m2
05:19 54 °F 52 °F 29.60 in SW 3.3 mph 7 mph 93% 0.02 in 0 W/m2
05:24 54 °F 52 °F 29.60 in SW 4.1 mph 7 mph 93% 0.02 in 0 W/m2
05:29 54 °F 52 °F 29.60 in SW 2.6 mph 4 mph 93% 0.02 in 0 W/m2
05:34 53.9 °F 51.9 °F 29.60 in SW 2.9 mph 5 mph 93% 0.02 in 0 W/m2
05:39 53.8 °F 51.8 °F 29.60 in WSW 4.5 mph 12 mph 93% 0.02 in 0 W/m2
05:44 53.7 °F 51.7 °F 29.60 in SW 3.3 mph 9 mph 93% 0.02 in 0 W/m2
05:49 53.4 °F 51.4 °F 29.60 in WSW 3 mph 5 mph 93% 0.02 in 0 W/m2
05:54 53.2 °F 51.3 °F 29.61 in WSW 2.8 mph 8 mph 93% 0.02 in 0 W/m2
05:59 53.1 °F 51.1 °F 29.61 in WSW 2 mph 6 mph 93% 0.02 in 0 W/m2
06:04 53 °F 51 °F 29.60 in WSW 2.7 mph 6 mph 93% 0.02 in 0 W/m2
06:09 52.9 °F 50.9 °F 29.60 in WSW 0.9 mph 4 mph 93% 0.02 in 0 W/m2
06:14 52.6 °F 50.6 °F 29.60 in WSW 2.2 mph 5 mph 93% 0.01 in 0 W/m2
06:19 52.5 °F 50.5 °F 29.60 in West 2.8 mph 6 mph 93% 0.00 in 0 W/m2
06:24 52.3 °F 50.4 °F 29.60 in West 1.6 mph 6 mph 93% 0.00 in 0 W/m2
06:29 52.2 °F 50.2 °F 29.60 in West 2.1 mph 6 mph 93% 0.00 in 0 W/m2
06:34 52 °F 50 °F 29.60 in West 1.8 mph 5 mph 93% 0.00 in 0 W/m2
06:39 51.8 °F 49.8 °F 29.60 in WNW 1.2 mph 3 mph 93% 0.00 in 0 W/m2
06:44 51.6 °F 49.6 °F 29.60 in WNW 2.1 mph 4 mph 93% 0.00 in 0 W/m2
06:49 51.4 °F 49.4 °F 29.60 in WSW 0.8 mph 4 mph 93% 0.00 in 0 W/m2
06:54 51.3 °F 49.3 °F 29.60 in NW 1.6 mph 4 mph 93% 0.00 in 0 W/m2
06:59 51.2 °F 49.2 °F 29.60 in WNW 1.3 mph 3 mph 93% 0.00 in 0 W/m2
07:04 50.8 °F 48.8 °F 29.60 in WNW 0.8 mph 3 mph 93% 0.00 in 0 W/m2
07:09 50.5 °F 48.6 °F 29.60 in West 0.7 mph 5 mph 93% 0.00 in 0 W/m2
07:14 50.6 °F 48.7 °F 29.60 in SW 0.8 mph 5 mph 93% 0.00 in 0 W/m2
07:19 50.5 °F 48.6 °F 29.60 in SW 0.5 mph 2 mph 93% 0.00 in 0 W/m2
07:24 50.4 °F 48.4 °F 29.60 in SW 0.5 mph 6 mph 93% 0.00 in 0 W/m2
07:29 50.6 °F 48.6 °F 29.60 in SSW 1.1 mph 5 mph 93% 0.00 in 0 W/m2
07:34 50.7 °F 48.7 °F 29.60 in SW 1.7 mph 6 mph 93% 0.00 in 5 W/m2
07:39 50.7 °F 48.7 °F 29.60 in WSW 0.4 mph 3 mph 93% 0.00 in 7 W/m2
07:44 50.5 °F 48.6 °F 29.60 in WSW 1 mph 2 mph 93% 0.00 in 9 W/m2
07:49 50.4 °F 48.4 °F 29.60 in WSW 1.3 mph 3 mph 93% 0.00 in 11 W/m2
07:54 50.2 °F 48.2 °F 29.60 in WSW 1.9 mph 4 mph 93% 0.00 in 12 W/m2
07:59 50.3 °F 48.3 °F 29.60 in WSW 1.3 mph 4 mph 93% 0.00 in 16 W/m2
08:04 50.4 °F 48.4 °F 29.60 in SW 1.2 mph 3 mph 93% 0.00 in 18 W/m2
08:09 50.4 °F 48.4 °F 29.60 in Calm   3 mph 93% 0.00 in 19 W/m2
08:14 50.5 °F 48.5 °F 29.60 in SW 2 mph 7 mph 93% 0.00 in 23 W/m2
08:19 50.8 °F 48.8 °F 29.60 in SW 2 mph 6 mph 93% 0.00 in 35 W/m2
08:24 51.3 °F 49.3 °F 29.60 in South 4 mph 8 mph 92.8% 0.00 in 40 W/m2
08:29 51.9 °F 49.6 °F 29.60 in SSW 5.3 mph 12 mph 92.2% 0.00 in 40 W/m2
08:34 52.3 °F 49.8 °F 29.60 in SW 4.8 mph 11 mph 91.4% 0.00 in 37 W/m2
08:39 52.6 °F 49.9 °F 29.60 in SW 6.6 mph 13 mph 90.4% 0.00 in 37 W/m2
08:44 53.1 °F 49.6 °F 29.59 in SSW 8.7 mph 14 mph 88% 0.00 in 46 W/m2
08:49 53.2 °F 49.1 °F 29.60 in SW 8.4 mph 16 mph 85.8% 0.00 in 86 W/m2
08:54 53.4 °F 49 °F 29.60 in SW 7 mph 12 mph 84.8% 0.00 in 88 W/m2
08:59 53.6 °F 48.8 °F 29.60 in SW 7.4 mph 13 mph 83.6% 0.00 in 76 W/m2
09:04 53.6 °F 48.6 °F 29.61 in SW 4.9 mph 14 mph 83% 0.00 in 113 W/m2
09:09 53.9 °F 48.8 °F 29.61 in SW 6.2 mph 13 mph 83% 0.00 in 134 W/m2
09:14 54.1 °F 48.7 °F 29.61 in SSW 7.2 mph 13 mph 82.2% 0.00 in 98 W/m2
09:19 54.1 °F 48.7 °F 29.61 in SW 10 mph 16 mph 82% 0.00 in 77 W/m2
09:24 54.1 °F 48.7 °F 29.61 in SW 12.8 mph 20 mph 82% 0.00 in 98 W/m2
09:29 54.1 °F 48.7 °F 29.61 in SW 7.4 mph 20 mph 82% 0.00 in 88 W/m2
09:34 54.1 °F 48.8 °F 29.62 in SSW 9.4 mph 17 mph 82.4% 0.00 in 95 W/m2
09:39 54.1 °F 49 °F 29.61 in SW 7.2 mph 16 mph 83% 0.00 in 169 W/m2
09:44 54.1 °F 49.5 °F 29.62 in SSW 8.8 mph 15 mph 84% 0.00 in 264 W/m2
09:49 54.2 °F 49.5 °F 29.62 in SW 12.3 mph 16 mph 84% 0.00 in 142 W/m2
09:54 54.1 °F 49.4 °F 29.62 in WSW 4.8 mph 17 mph 84% 0.00 in 139 W/m2
09:59 54 °F 49.3 °F 29.62 in SW 9.4 mph 14 mph 84% 0.00 in 102 W/m2
10:04 54 °F 49.3 °F 29.62 in SW 8.7 mph 15 mph 84% 0.00 in 176 W/m2
10:09 54 °F 49.1 °F 29.62 in SW 8.2 mph 13 mph 83.4% 0.00 in 183 W/m2
10:14 54.2 °F 49.2 °F 29.62 in WSW 5.3 mph 12 mph 83% 0.00 in 158 W/m2
10:19 54.4 °F 49.6 °F 29.62 in SW 6.1 mph 14 mph 83.6% 0.00 in 267 W/m2
10:24 54.8 °F 49.7 °F 29.62 in WSW 8.6 mph 15 mph 83% 0.00 in 178 W/m2
10:29 54.9 °F 49.8 °F 29.62 in West 7.4 mph 16 mph 83% 0.00 in 151 W/m2
10:34 55 °F 49.7 °F 29.62 in WSW 8.6 mph 16 mph 82.2% 0.00 in 178 W/m2
10:39 55.2 °F 49.8 °F 29.62 in SW 8 mph 13 mph 82% 0.00 in 348 W/m2
10:44 55.7 °F 50.3 °F 29.63 in SW 10.4 mph 15 mph 82% 0.00 in 346 W/m2
10:49 56 °F 50.4 °F 29.63 in SW 6.8 mph 15 mph 81.4% 0.00 in 399 W/m2
10:54 56.3 °F 50.9 °F 29.63 in SW 5.3 mph 12 mph 81.8% 0.00 in 399 W/m2
10:59 56.5 °F 51.1 °F 29.63 in SW 5.8 mph 11 mph 82% 0.00 in 227 W/m2
11:04 56.5 °F 51.1 °F 29.63 in SW 5 mph 10 mph 82% 0.00 in 260 W/m2
11:09 56.5 °F 51 °F 29.63 in SW 8.2 mph 15 mph 81.6% 0.00 in 202 W/m2
11:14 56.5 °F 50.7 °F 29.63 in WSW 6.3 mph 13 mph 81% 0.00 in 162 W/m2
11:19 56.5 °F 50.7 °F 29.63 in WSW 6.6 mph 13 mph 81% 0.00 in 267 W/m2
11:24 56.8 °F 51 °F 29.64 in WSW 5.7 mph 9 mph 81% 0.00 in 388 W/m2
11:29 57 °F 51.1 °F 29.63 in SW 6.6 mph 12 mph 80.4% 0.00 in 285 W/m2
11:34 57.2 °F 51 °F 29.64 in SW 8.5 mph 13 mph 79.8% 0.00 in 443 W/m2
11:39 57.4 °F 50.9 °F 29.64 in SSW 7.4 mph 14 mph 78.8% 0.00 in 378 W/m2
11:44 57.1 °F 50.3 °F 29.64 in SW 7.8 mph 21 mph 78% 0.00 in 330 W/m2
11:49 57.3 °F 50.4 °F 29.64 in WSW 9.3 mph 13 mph 78% 0.00 in 237 W/m2
11:54 57.4 °F 50.4 °F 29.64 in WSW 8 mph 15 mph 77.6% 0.00 in 343 W/m2
11:59 57.4 °F 50 °F 29.63 in SW 6.9 mph 16 mph 76.4% 0.00 in 209 W/m2
12:04 57.4 °F 49.8 °F 29.63 in SW 7.4 mph 16 mph 76% 0.00 in 445 W/m2
12:09 57.7 °F 49.8 °F 29.64 in SW 8.4 mph 21 mph 75% 0.00 in 441 W/m2
12:14 57.8 °F 49.6 °F 29.63 in WSW 8.8 mph 16 mph 74% 0.00 in 462 W/m2
12:19 58.2 °F 49.9 °F 29.63 in SW 8.2 mph 16 mph 74% 0.00 in 478 W/m2
12:24 58.7 °F 49.7 °F 29.63 in SW 6.6 mph 14 mph 72.2% 0.00 in 531 W/m2
12:29 59.2 °F 49.7 °F 29.63 in WSW 9.6 mph 19 mph 70.6% 0.00 in 557 W/m2
12:34 59.2 °F 49.6 °F 29.63 in WSW 11 mph 20 mph 70.4% 0.00 in 559 W/m2
12:39 59.8 °F 50.3 °F 29.63 in SW 6 mph 17 mph 70.8% 0.00 in 541 W/m2
12:44 59.7 °F 49.8 °F 29.63 in West 11.3 mph 19 mph 69.6% 0.00 in 552 W/m2
12:49 59 °F 48.9 °F 29.63 in WSW 9 mph 19 mph 69% 0.00 in 304 W/m2
12:54 58.6 °F 48.6 °F 29.63 in WSW 10 mph 18 mph 69% 0.00 in 237 W/m2
12:59 58.5 °F 48.8 °F 29.63 in West 10.8 mph 17 mph 70% 0.00 in 267 W/m2
13:04 58.6 °F 49.1 °F 29.64 in SW 8.2 mph 16 mph 70.6% 0.00 in 533 W/m2
13:09 59 °F 48.4 °F 29.63 in WSW 8.8 mph 18 mph 68% 0.00 in 529 W/m2
13:14 59 °F 47.9 °F 29.63 in WSW 9.2 mph 18 mph 66.6% 0.00 in 517 W/m2
13:19 58.3 °F 46.8 °F 29.63 in WSW 9.6 mph 20 mph 65.6% 0.00 in 311 W/m2
13:24 58 °F 47 °F 29.63 in WSW 8.6 mph 18 mph 67% 0.00 in 281 W/m2
13:29 57.9 °F 47.4 °F 29.63 in WSW 8.5 mph 14 mph 67.8% 0.00 in 461 W/m2
13:34 58.2 °F 47.8 °F 29.63 in WSW 7.2 mph 14 mph 68.2% 0.00 in 278 W/m2
13:39 58.4 °F 48.7 °F 29.63 in WSW 7.6 mph 11 mph 70.2% 0.00 in 244 W/m2
13:44 58.5 °F 49.3 °F 29.62 in SW 5.4 mph 15 mph 71.6% 0.00 in 279 W/m2
13:49 58.4 °F 49.7 °F 29.62 in WSW 5.7 mph 15 mph 72.8% 0.00 in 279 W/m2
13:54 58.4 °F 49.7 °F 29.62 in SW 6.2 mph 15 mph 72.8% 0.00 in 418 W/m2
13:59 58.6 °F 49.5 °F 29.62 in WSW 10.3 mph 15 mph 71.5% 0.00 in 501 W/m2
14:04 59.2 °F 49.6 °F 29.62 in SW 9.2 mph 14 mph 70.4% 0.00 in 501 W/m2
14:09 59.6 °F 49.7 °F 29.62 in SW 9.2 mph 14 mph 69.8% 0.00 in 461 W/m2
14:14 59.8 °F 49.4 °F 29.62 in WSW 7.8 mph 15 mph 68.4% 0.00 in 457 W/m2
14:19 60.1 °F 49.7 °F 29.62 in WSW 8.4 mph 15 mph 68.6% 0.00 in 461 W/m2
14:24 60.3 °F 49.6 °F 29.62 in WSW 8.6 mph 15 mph 68% 0.00 in 475 W/m2
14:29 60.5 °F 50 °F 29.61 in WSW 7 mph 13 mph 68.2% 0.00 in 415 W/m2
14:34 60.3 °F 49.4 °F 29.61 in WSW 8.4 mph 18 mph 67.2% 0.00 in 438 W/m2
14:39 60.3 °F 49.4 °F 29.61 in WSW 9 mph 16 mph 67.2% 0.00 in 302 W/m2
14:44 60.3 °F 49.4 °F 29.61 in WSW 9 mph 19 mph 67.6% 0.00 in 304 W/m2
14:49 60.2 °F 49.6 °F 29.61 in WSW 11.8 mph 15 mph 68.2% 0.00 in 480 W/m2
14:54 60.4 °F 49.7 °F 29.61 in SSW 10.8 mph 16 mph 67.8% 0.00 in 461 W/m2
14:59 60.1 °F 49.6 °F 29.60 in SW 10.4 mph 19 mph 68.4% 0.00 in 311 W/m2
15:04 60.1 °F 49.7 °F 29.60 in SSW 7.4 mph 19 mph 68.6% 0.00 in 427 W/m2
15:09 60.3 °F 49.1 °F 29.60 in SW 9.6 mph 20 mph 66.6% 0.00 in 374 W/m2
15:14 60.1 °F 48.5 °F 29.60 in SW 10.7 mph 20 mph 65.6% 0.00 in 165 W/m2
15:19 59.8 °F 48.3 °F 29.60 in SW 11.5 mph 18 mph 65.6% 0.00 in 369 W/m2
15:24 59.8 °F 48.5 °F 29.60 in SW 9.8 mph 16 mph 66.2% 0.00 in 353 W/m2
15:29 59.5 °F 48.5 °F 29.60 in SW 10.4 mph 19 mph 66.8% 0.00 in 267 W/m2
15:34 59.2 °F 48.5 °F 29.60 in SW 7.4 mph 17 mph 67.6% 0.00 in 295 W/m2
15:39 59.3 °F 48.8 °F 29.60 in SW 11.6 mph 17 mph 68.4% 0.00 in 336 W/m2
15:44 59.5 °F 49 °F 29.60 in SW 8.6 mph 16 mph 68.4% 0.00 in 313 W/m2
15:49 59.8 °F 49.4 °F 29.60 in SW 6 mph 14 mph 68.4% 0.00 in 316 W/m2
15:54 59.9 °F 49.3 °F 29.60 in SW 9 mph 14 mph 68% 0.00 in 294 W/m2
15:59 60.1 °F 49.3 °F 29.60 in SW 10 mph 16 mph 67.4% 0.00 in 279 W/m2
16:04 60.1 °F 49.1 °F 29.60 in SW 10.5 mph 16 mph 67% 0.00 in 260 W/m2
16:09 60.1 °F 49.1 °F 29.60 in SW 5.6 mph 16 mph 67.2% 0.00 in 248 W/m2
16:14 60 °F 49.2 °F 29.60 in SW 12 mph 17 mph 67.6% 0.00 in 241 W/m2
16:19 59.8 °F 48.8 °F 29.60 in SW 8.6 mph 19 mph 67% 0.00 in 181 W/m2
16:24 59.8 °F 48.5 °F 29.60 in SW 8.3 mph 21 mph 66% 0.00 in 88 W/m2
16:29 59.5 °F 48.1 °F 29.61 in SW 9.2 mph 16 mph 65.6% 0.00 in 202 W/m2
16:34 59.7 °F 48 °F 29.61 in SW 10 mph 18 mph 65% 0.00 in 207 W/m2
16:39 60.1 °F 48.4 °F 29.61 in SW 6 mph 14 mph 65.4% 0.00 in 193 W/m2
16:44 59.9 °F 48.2 °F 29.60 in SW 9.9 mph 17 mph 65.2% 0.00 in 162 W/m2
16:49 59.6 °F 48.3 °F 29.60 in SSW 6.8 mph 18 mph 66% 0.00 in 163 W/m2
16:54 59.5 °F 48.4 °F 29.60 in SW 9.8 mph 17 mph 66.4% 0.00 in 144 W/m2
16:59 59.3 °F 48.5 °F 29.60 in SW 8 mph 17 mph 67.6% 0.00 in 127 W/m2
17:04 59 °F 48.7 °F 29.60 in SSW 7.2 mph 17 mph 68.6% 0.00 in 125 W/m2
17:09 58.8 °F 49.2 °F 29.60 in SW 8.8 mph 16 mph 70.2% 0.00 in 100 W/m2
17:14 58.5 °F 49.1 °F 29.60 in SSW 9.2 mph 14 mph 71% 0.00 in 84 W/m2
17:19 58.3 °F 49.3 °F 29.60 in SW 6.2 mph 12 mph 72% 0.00 in 69 W/m2
17:24 58.3 °F 49.3 °F 29.60 in SW 7.4 mph 14 mph 72% 0.00 in 62 W/m2
17:29 58.1 °F 49.3 °F 29.60 in SW 6.7 mph 13 mph 72.4% 0.00 in 44 W/m2
17:34 57.9 °F 49.3 °F 29.61 in SW 5.4 mph 11 mph 73% 0.00 in 42 W/m2
17:39 57.8 °F 48.8 °F 29.61 in SW 8 mph 12 mph 72% 0.00 in 28 W/m2
17:44 57.7 °F 48.5 °F 29.61 in SW 5.6 mph 14 mph 71.4% 0.00 in 25 W/m2
17:49 57.6 °F 47.8 °F 29.61 in WSW 6.1 mph 14 mph 70% 0.00 in 19 W/m2
17:54 57.4 °F 47.7 °F 29.61 in SW 6 mph 10 mph 70% 0.00 in 18 W/m2
17:59 57.2 °F 47.5 °F 29.61 in SW 6 mph 10 mph 70% 0.00 in 18 W/m2
18:04 57 °F 47.3 °F 29.61 in SW 7 mph 16 mph 70% 0.00 in 16 W/m2
18:09 56.9 °F 47.6 °F 29.61 in SSW 3.9 mph 11 mph 71% 0.00 in 12 W/m2
18:14 56.6 °F 47.6 °F 29.61 in SSW 4.4 mph 9 mph 72% 0.00 in 9 W/m2
18:19 56.5 °F 48 °F 29.61 in SSW 3.8 mph 9 mph 73% 0.00 in 5 W/m2
18:24 56.1 °F 47.9 °F 29.61 in SSW 4.3 mph 8 mph 73.6% 0.00 in 0 W/m2
18:29 55.9 °F 48 °F 29.61 in SSW 3.3 mph 8 mph 74.6% 0.00 in 0 W/m2
18:34 55.8 °F 48.1 °F 29.62 in SSW 2.9 mph 9 mph 75.2% 0.00 in 0 W/m2
18:39 55.8 °F 48.4 °F 29.62 in SSW 6 mph 12 mph 76% 0.00 in 0 W/m2
18:44 55.8 °F 48 °F 29.62 in SW 6.4 mph 10 mph 75% 0.00 in 0 W/m2
18:49 55.8 °F 48 °F 29.62 in SW 3.8 mph 9 mph 75% 0.00 in 0 W/m2
18:54 55.5 °F 47.6 °F 29.62 in SSW 5.6 mph 8 mph 74.6% 0.00 in 0 W/m2
18:59 55.4 °F 47.3 °F 29.62 in SSW 4.7 mph 10 mph 74% 0.00 in 0 W/m2
19:04 55.2 °F 47.1 °F 29.62 in SW 5 mph 9 mph 74% 0.00 in 0 W/m2
19:09 55.1 °F 47.2 °F 29.62 in SSW 6 mph 10 mph 74.6% 0.00 in 0 W/m2
19:14 55 °F 47.3 °F 29.62 in SSW 5.3 mph 10 mph 75% 0.00 in 0 W/m2
19:19 55 °F 47.3 °F 29.62 in South 4.1 mph 9 mph 75% 0.00 in 0 W/m2
19:24 54.9 °F 47.2 °F 29.63 in SSW 4.2 mph 8 mph 75.2% 0.00 in 0 W/m2
19:29 54.9 °F 47.5 °F 29.63 in SW 5.8 mph 12 mph 76% 0.00 in 0 W/m2
19:34 54.9 °F 47.6 °F 29.63 in SSW 6.6 mph 12 mph 76% 0.00 in 0 W/m2
19:39 55 °F 47.7 °F 29.63 in SSW 5.5 mph 12 mph 76% 0.00 in 0 W/m2
19:44 55 °F 47.7 °F 29.63 in SSW 5.8 mph 9 mph 76% 0.00 in 0 W/m2
19:49 55 °F 47.7 °F 29.63 in SSW 5.7 mph 11 mph 76% 0.00 in 0 W/m2
19:54 55 °F 47.8 °F 29.63 in SSW 5.1 mph 13 mph 76.6% 0.00 in 0 W/m2
19:59 55 °F 47.9 °F 29.63 in SW 4.8 mph 13 mph 77% 0.00 in 0 W/m2
20:04 54.9 °F 48 °F 29.64 in SW 5.3 mph 11 mph 77.4% 0.00 in 0 W/m2
20:09 54.7 °F 48 °F 29.64 in SW 5.6 mph 9 mph 78% 0.00 in 0 W/m2
20:14 54.6 °F 47.9 °F 29.64 in SW 3.6 mph 8 mph 78% 0.00 in 0 W/m2
20:19 54.3 °F 47.7 °F 29.64 in SW 4 mph 8 mph 78% 0.00 in 0 W/m2
20:24 54.3 °F 47.7 °F 29.64 in SW 5.5 mph 8 mph 78% 0.00 in 0 W/m2
20:29 54.3 °F 47.7 °F 29.64 in SW 5.4 mph 10 mph 78% 0.00 in 0 W/m2
20:34 54.3 °F 47.7 °F 29.64 in SW 3.8 mph 8 mph 78% 0.00 in 0 W/m2
20:39 54.3 °F 47.7 °F 29.64 in SW 3.6 mph 9 mph 78% 0.00 in 0 W/m2
20:44 54.3 °F 47.7 °F 29.64 in SW 3.8 mph 8 mph 78% 0.00 in 0 W/m2
20:49 54.3 °F 47.7 °F 29.64 in SW 4 mph 8 mph 78% 0.00 in 0 W/m2
20:54 54.2 °F 47.9 °F 29.64 in SW 4.9 mph 10 mph 79% 0.00 in 0 W/m2
20:59 54.3 °F 48 °F 29.65 in SW 5.5 mph 10 mph 79% 0.00 in 0 W/m2
21:04 54.3 °F 47.9 °F 29.65 in SW 4.9 mph 9 mph 78.8% 0.00 in 0 W/m2
21:09 54.3 °F 47.9 °F 29.65 in SW 3.6 mph 11 mph 78.8% 0.00 in 0 W/m2
21:14 54.3 °F 48 °F 29.64 in SSW 3.7 mph 7 mph 79% 0.00 in 0 W/m2
21:19 54.3 °F 48 °F 29.64 in SSW 6 mph 9 mph 79% 0.00 in 0 W/m2
21:24 54.3 °F 48 °F 29.64 in SW 4.4 mph 9 mph 79% 0.00 in 0 W/m2
21:29 54.3 °F 48 °F 29.64 in SW 5.9 mph 14 mph 79% 0.00 in 0 W/m2
21:33 54.3 °F 48 °F 29.64 in SSW 3.7 mph 9 mph 79% 0.00 in 0 W/m2
21:39 54.3 °F 48 °F 29.64 in SSW 4.9 mph 12 mph 79% 0.00 in 0 W/m2
21:44 54.3 °F 48 °F 29.65 in SW 3.7 mph 9 mph 79% 0.00 in 0 W/m2
21:49 54.3 °F 48 °F 29.65 in SW 6 mph 14 mph 79% 0.00 in 0 W/m2
21:54 54.3 °F 48 °F 29.65 in WSW 8 mph 15 mph 79% 0.00 in 0 W/m2
21:59 54.5 °F 48.2 °F 29.65 in SW 7.2 mph 16 mph 79% 0.00 in 0 W/m2
22:04 54.5 °F 48.2 °F 29.65 in SW 5.8 mph 12 mph 79% 0.00 in 0 W/m2
22:09 54.5 °F 48 °F 29.65 in SW 9 mph 19 mph 78.6% 0.00 in 0 W/m2
22:14 54.7 °F 48 °F 29.65 in SW 8.4 mph 16 mph 78% 0.00 in 0 W/m2
22:19 54.6 °F 47.9 °F 29.65 in SW 7.5 mph 14 mph 78% 0.00 in 0 W/m2
22:24 54.5 °F 47.8 °F 29.66 in SSW 6.8 mph 14 mph 78% 0.00 in 0 W/m2
22:29 54.3 °F 47.7 °F 29.66 in SW 5.6 mph 11 mph 78% 0.00 in 0 W/m2
22:34 54.1 °F 47.5 °F 29.66 in SW 8 mph 13 mph 78% 0.00 in 0 W/m2
22:39 54.1 °F 47.5 °F 29.67 in SW 7.4 mph 14 mph 78% 0.00 in 0 W/m2
22:44 54 °F 47.3 °F 29.67 in SW 6.7 mph 14 mph 78% 0.00 in 0 W/m2
22:49 54 °F 47.3 °F 29.67 in SW 9.8 mph 17 mph 78% 0.00 in 0 W/m2
22:54 54 °F 47.3 °F 29.67 in WSW 7.1 mph 16 mph 78% 0.00 in 0 W/m2
22:59 54 °F 47.3 °F 29.67 in SW 9.6 mph 15 mph 78% 0.00 in 0 W/m2
23:04 54 °F 47.3 °F 29.67 in SW 7.6 mph 19 mph 78% 0.00 in 0 W/m2
23:09 53.8 °F 47.1 °F 29.67 in SW 7.6 mph 16 mph 78% 0.00 in 0 W/m2
23:14 53.7 °F 47 °F 29.67 in SW 7.9 mph 14 mph 78% 0.00 in 0 W/m2
23:19 53.5 °F 47.2 °F 29.67 in SSW 6.4 mph 12 mph 79% 0.00 in 0 W/m2
23:24 53.4 °F 47.1 °F 29.67 in SW 6.4 mph 13 mph 79% 0.00 in 0 W/m2
23:29 53.3 °F 47 °F 29.67 in SW 5.9 mph 13 mph 79% 0.00 in 0 W/m2
23:34 53.2 °F 46.9 °F 29.67 in SW 8.8 mph 13 mph 79% 0.00 in 0 W/m2
23:39 53.2 °F 46.9 °F 29.67 in SW 6.6 mph 14 mph 79% 0.00 in 0 W/m2
23:44 53.2 °F 46.9 °F 29.67 in SW 7 mph 16 mph 79% 0.00 in 0 W/m2
23:49 53.2 °F 46.9 °F 29.67 in SSW 7.1 mph 12 mph 79% 0.00 in 0 W/m2
23:54 53.2 °F 46.9 °F 29.67 in SW 7.6 mph 12 mph 79% 0.00 in 0 W/m2
23:59 53.2 °F 46.9 °F 29.67 in SW 7 mph 13 mph 79% 0.00 in 0 W/m2
Bath Spa Weather
Compliments of Weather Underground - 2 mb